sensor_id;sensor_type;location;lat;lon;timestamp;P1;durP1;ratioP1;P2;durP2;ratioP2
15354;SDS011;7777;52.254;9.618;2024-02-15T00:02:20;8.43;;;7.63;;
15354;SDS011;7777;52.254;9.618;2024-02-15T00:04:46;7.83;;;6.40;;
15354;SDS011;7777;52.254;9.618;2024-02-15T00:07:12;8.33;;;7.40;;
15354;SDS011;7777;52.254;9.618;2024-02-15T00:09:37;8.90;;;7.07;;
15354;SDS011;7777;52.254;9.618;2024-02-15T00:12:03;8.47;;;6.80;;
15354;SDS011;7777;52.254;9.618;2024-02-15T00:14:29;8.87;;;6.97;;
15354;SDS011;7777;52.254;9.618;2024-02-15T00:16:56;7.00;;;6.30;;
15354;SDS011;7777;52.254;9.618;2024-02-15T00:19:22;8.00;;;7.20;;
15354;SDS011;7777;52.254;9.618;2024-02-15T00:21:48;8.73;;;7.27;;
15354;SDS011;7777;52.254;9.618;2024-02-15T00:24:14;7.37;;;6.60;;
15354;SDS011;7777;52.254;9.618;2024-02-15T00:26:40;7.63;;;6.20;;
15354;SDS011;7777;52.254;9.618;2024-02-15T00:29:07;7.47;;;6.37;;
15354;SDS011;7777;52.254;9.618;2024-02-15T00:31:34;8.17;;;6.60;;
15354;SDS011;7777;52.254;9.618;2024-02-15T00:34:03;7.73;;;6.77;;
15354;SDS011;7777;52.254;9.618;2024-02-15T00:36:29;7.80;;;6.90;;
15354;SDS011;7777;52.254;9.618;2024-02-15T00:38:54;11.63;;;8.13;;
15354;SDS011;7777;52.254;9.618;2024-02-15T00:41:21;10.90;;;7.10;;
15354;SDS011;7777;52.254;9.618;2024-02-15T00:43:47;9.73;;;7.40;;
15354;SDS011;7777;52.254;9.618;2024-02-15T00:46:13;9.33;;;7.30;;
15354;SDS011;7777;52.254;9.618;2024-02-15T00:48:40;9.03;;;7.47;;
15354;SDS011;7777;52.254;9.618;2024-02-15T00:51:08;8.77;;;7.20;;
15354;SDS011;7777;52.254;9.618;2024-02-15T00:53:33;7.87;;;7.03;;
15354;SDS011;7777;52.254;9.618;2024-02-15T00:56:00;8.83;;;7.43;;
15354;SDS011;7777;52.254;9.618;2024-02-15T00:58:26;7.97;;;6.73;;
15354;SDS011;7777;52.254;9.618;2024-02-15T01:00:52;10.97;;;7.63;;
15354;SDS011;7777;52.254;9.618;2024-02-15T01:03:20;9.23;;;7.17;;
15354;SDS011;7777;52.254;9.618;2024-02-15T01:05:47;7.97;;;6.80;;
15354;SDS011;7777;52.254;9.618;2024-02-15T01:08:13;10.37;;;6.83;;
15354;SDS011;7777;52.254;9.618;2024-02-15T01:10:39;6.97;;;6.23;;
15354;SDS011;7777;52.254;9.618;2024-02-15T01:13:05;9.30;;;6.70;;
15354;SDS011;7777;52.254;9.618;2024-02-15T01:15:30;9.23;;;6.20;;
15354;SDS011;7777;52.254;9.618;2024-02-15T01:17:56;7.03;;;6.13;;
15354;SDS011;7777;52.254;9.618;2024-02-15T01:20:22;8.30;;;6.03;;
15354;SDS011;7777;52.254;9.618;2024-02-15T01:22:48;7.57;;;5.73;;
15354;SDS011;7777;52.254;9.618;2024-02-15T01:25:15;7.47;;;6.53;;
15354;SDS011;7777;52.254;9.618;2024-02-15T01:27:42;7.17;;;6.13;;
15354;SDS011;7777;52.254;9.618;2024-02-15T01:30:07;8.60;;;6.03;;
15354;SDS011;7777;52.254;9.618;2024-02-15T01:32:34;6.17;;;5.40;;
15354;SDS011;7777;52.254;9.618;2024-02-15T01:35:00;8.00;;;6.10;;
15354;SDS011;7777;52.254;9.618;2024-02-15T01:37:25;7.23;;;5.70;;
15354;SDS011;7777;52.254;9.618;2024-02-15T01:39:51;6.10;;;5.50;;
15354;SDS011;7777;52.254;9.618;2024-02-15T01:42:17;6.60;;;5.53;;
15354;SDS011;7777;52.254;9.618;2024-02-15T01:44:43;6.33;;;5.40;;
15354;SDS011;7777;52.254;9.618;2024-02-15T01:47:12;6.13;;;5.30;;
15354;SDS011;7777;52.254;9.618;2024-02-15T01:49:39;5.87;;;5.07;;
15354;SDS011;7777;52.254;9.618;2024-02-15T01:52:06;8.70;;;5.73;;
15354;SDS011;7777;52.254;9.618;2024-02-15T01:54:35;7.03;;;4.97;;
15354;SDS011;7777;52.254;9.618;2024-02-15T01:57:03;5.40;;;4.90;;
15354;SDS011;7777;52.254;9.618;2024-02-15T01:59:30;8.40;;;5.60;;
15354;SDS011;7777;52.254;9.618;2024-02-15T02:01:56;6.03;;;5.40;;
15354;SDS011;7777;52.254;9.618;2024-02-15T02:04:22;5.37;;;4.70;;
15354;SDS011;7777;52.254;9.618;2024-02-15T02:06:48;6.67;;;5.63;;
15354;SDS011;7777;52.254;9.618;2024-02-15T02:09:14;5.20;;;4.47;;
15354;SDS011;7777;52.254;9.618;2024-02-15T02:11:44;7.67;;;5.40;;
15354;SDS011;7777;52.254;9.618;2024-02-15T02:14:11;6.53;;;5.00;;
15354;SDS011;7777;52.254;9.618;2024-02-15T02:16:37;8.17;;;4.83;;
15354;SDS011;7777;52.254;9.618;2024-02-15T02:19:04;5.97;;;5.23;;
15354;SDS011;7777;52.254;9.618;2024-02-15T02:21:34;5.67;;;5.07;;
15354;SDS011;7777;52.254;9.618;2024-02-15T02:24:04;5.03;;;4.53;;
15354;SDS011;7777;52.254;9.618;2024-02-15T02:26:42;6.07;;;4.83;;
15354;SDS011;7777;52.254;9.618;2024-02-15T02:29:09;4.60;;;4.07;;
15354;SDS011;7777;52.254;9.618;2024-02-15T02:31:35;5.37;;;4.63;;
15354;SDS011;7777;52.254;9.618;2024-02-15T02:34:02;5.20;;;4.33;;
15354;SDS011;7777;52.254;9.618;2024-02-15T02:36:28;4.13;;;3.73;;
15354;SDS011;7777;52.254;9.618;2024-02-15T02:38:54;6.53;;;3.50;;
15354;SDS011;7777;52.254;9.618;2024-02-15T02:41:25;4.83;;;3.50;;
15354;SDS011;7777;52.254;9.618;2024-02-15T02:43:51;4.53;;;3.43;;
15354;SDS011;7777;52.254;9.618;2024-02-15T02:46:17;4.30;;;3.67;;
15354;SDS011;7777;52.254;9.618;2024-02-15T02:48:43;4.07;;;3.00;;
15354;SDS011;7777;52.254;9.618;2024-02-15T02:51:09;4.87;;;3.30;;
15354;SDS011;7777;52.254;9.618;2024-02-15T02:53:35;4.00;;;3.17;;
15354;SDS011;7777;52.254;9.618;2024-02-15T02:56:01;3.67;;;3.03;;
15354;SDS011;7777;52.254;9.618;2024-02-15T02:58:28;3.77;;;3.30;;
15354;SDS011;7777;52.254;9.618;2024-02-15T03:00:54;6.57;;;3.53;;
15354;SDS011;7777;52.254;9.618;2024-02-15T03:03:21;4.20;;;3.33;;
15354;SDS011;7777;52.254;9.618;2024-02-15T03:05:49;4.10;;;3.43;;
15354;SDS011;7777;52.254;9.618;2024-02-15T03:08:15;6.17;;;3.57;;
15354;SDS011;7777;52.254;9.618;2024-02-15T03:10:42;3.70;;;3.27;;
15354;SDS011;7777;52.254;9.618;2024-02-15T03:13:08;3.47;;;3.13;;
15354;SDS011;7777;52.254;9.618;2024-02-15T03:15:34;4.60;;;3.50;;
15354;SDS011;7777;52.254;9.618;2024-02-15T03:18:01;6.70;;;3.67;;
15354;SDS011;7777;52.254;9.618;2024-02-15T03:20:32;7.70;;;3.73;;
15354;SDS011;7777;52.254;9.618;2024-02-15T03:22:59;6.17;;;3.60;;
15354;SDS011;7777;52.254;9.618;2024-02-15T03:25:26;6.07;;;3.40;;
15354;SDS011;7777;52.254;9.618;2024-02-15T03:27:54;5.90;;;3.70;;
15354;SDS011;7777;52.254;9.618;2024-02-15T03:30:23;5.80;;;4.50;;
15354;SDS011;7777;52.254;9.618;2024-02-15T03:32:54;6.93;;;3.53;;
15354;SDS011;7777;52.254;9.618;2024-02-15T03:35:20;3.30;;;2.97;;
15354;SDS011;7777;52.254;9.618;2024-02-15T03:37:47;3.97;;;3.40;;
15354;SDS011;7777;52.254;9.618;2024-02-15T03:40:16;3.30;;;2.83;;
15354;SDS011;7777;52.254;9.618;2024-02-15T03:42:46;6.50;;;3.27;;
15354;SDS011;7777;52.254;9.618;2024-02-15T03:45:12;6.47;;;3.00;;
15354;SDS011;7777;52.254;9.618;2024-02-15T03:47:38;4.23;;;3.13;;
15354;SDS011;7777;52.254;9.618;2024-02-15T03:50:05;4.53;;;3.70;;
15354;SDS011;7777;52.254;9.618;2024-02-15T03:52:36;3.50;;;3.10;;
15354;SDS011;7777;52.254;9.618;2024-02-15T03:55:03;3.80;;;3.10;;
15354;SDS011;7777;52.254;9.618;2024-02-15T03:57:30;5.17;;;3.77;;
15354;SDS011;7777;52.254;9.618;2024-02-15T03:59:56;3.73;;;3.37;;
15354;SDS011;7777;52.254;9.618;2024-02-15T04:02:22;4.67;;;3.13;;
15354;SDS011;7777;52.254;9.618;2024-02-15T04:04:55;5.87;;;4.00;;
15354;SDS011;7777;52.254;9.618;2024-02-15T04:07:22;4.30;;;3.53;;
15354;SDS011;7777;52.254;9.618;2024-02-15T04:09:50;5.10;;;4.53;;
15354;SDS011;7777;52.254;9.618;2024-02-15T04:12:16;7.37;;;4.47;;
15354;SDS011;7777;52.254;9.618;2024-02-15T04:14:43;5.13;;;4.60;;
15354;SDS011;7777;52.254;9.618;2024-02-15T04:17:12;5.67;;;3.70;;
15354;SDS011;7777;52.254;9.618;2024-02-15T04:19:39;5.87;;;4.50;;
15354;SDS011;7777;52.254;9.618;2024-02-15T04:22:05;4.30;;;3.90;;
15354;SDS011;7777;52.254;9.618;2024-02-15T04:24:32;4.20;;;3.80;;
15354;SDS011;7777;52.254;9.618;2024-02-15T04:27:04;4.30;;;3.80;;
15354;SDS011;7777;52.254;9.618;2024-02-15T04:29:36;4.63;;;3.47;;
15354;SDS011;7777;52.254;9.618;2024-02-15T04:32:05;4.33;;;3.80;;
15354;SDS011;7777;52.254;9.618;2024-02-15T04:34:35;4.07;;;3.67;;
15354;SDS011;7777;52.254;9.618;2024-02-15T04:37:02;4.13;;;3.67;;
15354;SDS011;7777;52.254;9.618;2024-02-15T04:39:31;4.17;;;3.57;;
15354;SDS011;7777;52.254;9.618;2024-02-15T04:42:00;4.20;;;3.47;;
15354;SDS011;7777;52.254;9.618;2024-02-15T04:44:32;6.47;;;3.60;;
15354;SDS011;7777;52.254;9.618;2024-02-15T04:47:00;6.40;;;3.60;;
15354;SDS011;7777;52.254;9.618;2024-02-15T04:49:30;5.73;;;4.17;;
15354;SDS011;7777;52.254;9.618;2024-02-15T04:51:56;9.07;;;4.30;;
15354;SDS011;7777;52.254;9.618;2024-02-15T04:54:22;5.03;;;4.53;;
15354;SDS011;7777;52.254;9.618;2024-02-15T04:56:48;5.83;;;5.00;;
15354;SDS011;7777;52.254;9.618;2024-02-15T04:59:18;6.40;;;4.57;;
15354;SDS011;7777;52.254;9.618;2024-02-15T05:01:46;4.67;;;3.97;;
15354;SDS011;7777;52.254;9.618;2024-02-15T05:04:12;4.17;;;3.63;;
15354;SDS011;7777;52.254;9.618;2024-02-15T05:06:39;6.17;;;3.67;;
15354;SDS011;7777;52.254;9.618;2024-02-15T05:09:05;6.47;;;4.53;;
15354;SDS011;7777;52.254;9.618;2024-02-15T05:11:38;5.27;;;4.00;;
15354;SDS011;7777;52.254;9.618;2024-02-15T05:14:11;4.83;;;3.90;;
15354;SDS011;7777;52.254;9.618;2024-02-15T05:16:38;5.03;;;4.40;;
15354;SDS011;7777;52.254;9.618;2024-02-15T05:19:07;4.87;;;4.37;;
15354;SDS011;7777;52.254;9.618;2024-02-15T05:21:37;8.33;;;4.73;;
15354;SDS011;7777;52.254;9.618;2024-02-15T05:24:03;8.43;;;5.93;;
15354;SDS011;7777;52.254;9.618;2024-02-15T05:26:31;6.30;;;4.93;;
15354;SDS011;7777;52.254;9.618;2024-02-15T05:28:56;6.57;;;5.80;;
15354;SDS011;7777;52.254;9.618;2024-02-15T05:31:22;13.00;;;6.00;;
15354;SDS011;7777;52.254;9.618;2024-02-15T05:33:52;7.87;;;6.43;;
15354;SDS011;7777;52.254;9.618;2024-02-15T05:36:20;7.33;;;5.83;;
15354;SDS011;7777;52.254;9.618;2024-02-15T05:38:48;7.67;;;6.43;;
15354;SDS011;7777;52.254;9.618;2024-02-15T05:41:16;8.90;;;7.00;;
15354;SDS011;7777;52.254;9.618;2024-02-15T05:43:42;8.40;;;6.63;;
15354;SDS011;7777;52.254;9.618;2024-02-15T05:46:09;10.33;;;8.00;;
15354;SDS011;7777;52.254;9.618;2024-02-15T05:48:35;8.53;;;7.57;;
15354;SDS011;7777;52.254;9.618;2024-02-15T05:51:08;11.30;;;7.50;;
15354;SDS011;7777;52.254;9.618;2024-02-15T05:53:34;11.57;;;8.13;;
15354;SDS011;7777;52.254;9.618;2024-02-15T05:56:08;10.47;;;8.37;;
15354;SDS011;7777;52.254;9.618;2024-02-15T05:58:38;9.23;;;6.90;;
15354;SDS011;7777;52.254;9.618;2024-02-15T06:01:07;10.23;;;8.40;;
15354;SDS011;7777;52.254;9.618;2024-02-15T06:03:36;11.93;;;8.70;;
15354;SDS011;7777;52.254;9.618;2024-02-15T06:06:03;11.03;;;9.20;;
15354;SDS011;7777;52.254;9.618;2024-02-15T06:08:33;11.20;;;8.97;;
15354;SDS011;7777;52.254;9.618;2024-02-15T06:11:00;11.17;;;8.87;;
15354;SDS011;7777;52.254;9.618;2024-02-15T06:13:26;12.90;;;9.70;;
15354;SDS011;7777;52.254;9.618;2024-02-15T06:15:53;12.77;;;10.07;;
15354;SDS011;7777;52.254;9.618;2024-02-15T06:18:23;16.23;;;10.00;;
15354;SDS011;7777;52.254;9.618;2024-02-15T06:20:57;11.90;;;10.27;;
15354;SDS011;7777;52.254;9.618;2024-02-15T06:23:27;15.83;;;11.77;;
15354;SDS011;7777;52.254;9.618;2024-02-15T06:25:53;13.97;;;10.60;;
15354;SDS011;7777;52.254;9.618;2024-02-15T06:28:22;15.47;;;10.70;;
15354;SDS011;7777;52.254;9.618;2024-02-15T06:31:07;17.97;;;11.00;;
15354;SDS011;7777;52.254;9.618;2024-02-15T06:33:52;15.70;;;11.63;;
15354;SDS011;7777;52.254;9.618;2024-02-15T06:36:39;14.77;;;11.53;;
15354;SDS011;7777;52.254;9.618;2024-02-15T06:39:33;19.23;;;11.00;;
15354;SDS011;7777;52.254;9.618;2024-02-15T06:42:14;13.80;;;10.20;;
15354;SDS011;7777;52.254;9.618;2024-02-15T06:44:43;14.70;;;10.70;;
15354;SDS011;7777;52.254;9.618;2024-02-15T06:47:10;15.57;;;11.10;;
15354;SDS011;7777;52.254;9.618;2024-02-15T06:49:37;17.00;;;11.57;;
15354;SDS011;7777;52.254;9.618;2024-02-15T06:52:08;13.83;;;12.07;;
15354;SDS011;7777;52.254;9.618;2024-02-15T06:54:34;16.97;;;11.47;;
15354;SDS011;7777;52.254;9.618;2024-02-15T06:57:03;18.07;;;11.90;;
15354;SDS011;7777;52.254;9.618;2024-02-15T06:59:29;14.27;;;11.47;;
15354;SDS011;7777;52.254;9.618;2024-02-15T07:01:57;12.97;;;10.50;;
15354;SDS011;7777;52.254;9.618;2024-02-15T07:04:29;13.53;;;10.50;;
15354;SDS011;7777;52.254;9.618;2024-02-15T07:06:57;14.37;;;10.67;;
15354;SDS011;7777;52.254;9.618;2024-02-15T07:09:23;13.13;;;10.23;;
15354;SDS011;7777;52.254;9.618;2024-02-15T07:11:52;13.53;;;9.20;;
15354;SDS011;7777;52.254;9.618;2024-02-15T07:14:18;13.53;;;8.70;;
15354;SDS011;7777;52.254;9.618;2024-02-15T07:16:48;10.77;;;8.50;;
15354;SDS011;7777;52.254;9.618;2024-02-15T07:19:15;14.40;;;8.73;;
15354;SDS011;7777;52.254;9.618;2024-02-15T07:21:41;15.13;;;9.13;;
15354;SDS011;7777;52.254;9.618;2024-02-15T07:24:07;10.67;;;8.07;;
15354;SDS011;7777;52.254;9.618;2024-02-15T07:26:34;13.97;;;8.27;;
15354;SDS011;7777;52.254;9.618;2024-02-15T07:29:01;10.20;;;7.73;;
15354;SDS011;7777;52.254;9.618;2024-02-15T07:31:31;13.13;;;8.13;;
15354;SDS011;7777;52.254;9.618;2024-02-15T07:34:00;11.77;;;7.50;;
15354;SDS011;7777;52.254;9.618;2024-02-15T07:36:26;12.20;;;6.53;;
15354;SDS011;7777;52.254;9.618;2024-02-15T07:38:53;10.73;;;7.30;;
15354;SDS011;7777;52.254;9.618;2024-02-15T07:41:20;9.47;;;6.43;;
15354;SDS011;7777;52.254;9.618;2024-02-15T07:43:47;8.40;;;5.63;;
15354;SDS011;7777;52.254;9.618;2024-02-15T07:46:20;11.57;;;5.50;;
15354;SDS011;7777;52.254;9.618;2024-02-15T07:48:46;11.77;;;5.57;;
15354;SDS011;7777;52.254;9.618;2024-02-15T07:51:15;9.07;;;5.40;;
15354;SDS011;7777;52.254;9.618;2024-02-15T07:53:43;8.60;;;5.13;;
15354;SDS011;7777;52.254;9.618;2024-02-15T07:56:10;9.80;;;4.73;;
15354;SDS011;7777;52.254;9.618;2024-02-15T07:58:39;7.57;;;4.80;;
15354;SDS011;7777;52.254;9.618;2024-02-15T08:01:15;11.10;;;5.57;;
15354;SDS011;7777;52.254;9.618;2024-02-15T08:03:42;5.17;;;4.23;;
15354;SDS011;7777;52.254;9.618;2024-02-15T08:06:11;9.13;;;4.43;;
15354;SDS011;7777;52.254;9.618;2024-02-15T08:08:38;9.03;;;4.77;;
15354;SDS011;7777;52.254;9.618;2024-02-15T08:11:12;12.73;;;4.40;;
15354;SDS011;7777;52.254;9.618;2024-02-15T08:13:45;9.37;;;4.40;;
15354;SDS011;7777;52.254;9.618;2024-02-15T08:16:21;7.07;;;3.67;;
15354;SDS011;7777;52.254;9.618;2024-02-15T08:18:48;5.37;;;3.60;;
15354;SDS011;7777;52.254;9.618;2024-02-15T08:21:17;8.00;;;3.10;;
15354;SDS011;7777;52.254;9.618;2024-02-15T08:23:46;6.17;;;3.10;;
15354;SDS011;7777;52.254;9.618;2024-02-15T08:26:11;14.43;;;3.30;;
15354;SDS011;7777;52.254;9.618;2024-02-15T08:28:37;6.90;;;3.30;;
15354;SDS011;7777;52.254;9.618;2024-02-15T08:31:03;8.33;;;2.83;;
15354;SDS011;7777;52.254;9.618;2024-02-15T08:33:29;7.67;;;3.30;;
15354;SDS011;7777;52.254;9.618;2024-02-15T08:35:55;5.77;;;2.90;;
15354;SDS011;7777;52.254;9.618;2024-02-15T08:38:24;7.33;;;2.57;;
15354;SDS011;7777;52.254;9.618;2024-02-15T08:40:49;5.60;;;3.07;;
15354;SDS011;7777;52.254;9.618;2024-02-15T08:43:15;4.10;;;2.70;;
15354;SDS011;7777;52.254;9.618;2024-02-15T08:45:41;7.03;;;2.20;;
15354;SDS011;7777;52.254;9.618;2024-02-15T08:48:08;5.20;;;3.30;;
15354;SDS011;7777;52.254;9.618;2024-02-15T08:50:34;7.17;;;3.23;;
15354;SDS011;7777;52.254;9.618;2024-02-15T08:53:01;4.53;;;2.10;;
15354;SDS011;7777;52.254;9.618;2024-02-15T08:55:31;5.23;;;1.97;;
15354;SDS011;7777;52.254;9.618;2024-02-15T08:57:57;6.10;;;2.30;;
15354;SDS011;7777;52.254;9.618;2024-02-15T09:00:24;3.43;;;1.73;;
15354;SDS011;7777;52.254;9.618;2024-02-15T09:02:51;4.17;;;2.07;;
15354;SDS011;7777;52.254;9.618;2024-02-15T09:05:18;4.50;;;2.03;;
15354;SDS011;7777;52.254;9.618;2024-02-15T09:07:44;5.37;;;1.90;;
15354;SDS011;7777;52.254;9.618;2024-02-15T09:10:16;7.07;;;1.80;;
15354;SDS011;7777;52.254;9.618;2024-02-15T09:12:42;6.37;;;1.80;;
15354;SDS011;7777;52.254;9.618;2024-02-15T09:15:11;4.77;;;1.70;;
15354;SDS011;7777;52.254;9.618;2024-02-15T09:17:37;3.13;;;1.60;;
15354;SDS011;7777;52.254;9.618;2024-02-15T09:22:43;5.27;;;2.07;;
15354;SDS011;7777;52.254;9.618;2024-02-15T09:25:13;2.53;;;1.33;;
15354;SDS011;7777;52.254;9.618;2024-02-15T09:27:39;3.17;;;1.37;;
15354;SDS011;7777;52.254;9.618;2024-02-15T09:30:08;2.23;;;1.50;;
15354;SDS011;7777;52.254;9.618;2024-02-15T09:32:38;4.27;;;1.53;;
15354;SDS011;7777;52.254;9.618;2024-02-15T09:35:04;2.40;;;1.17;;
15354;SDS011;7777;52.254;9.618;2024-02-15T09:37:34;3.80;;;1.20;;
15354;SDS011;7777;52.254;9.618;2024-02-15T09:40:09;2.80;;;1.60;;
15354;SDS011;7777;52.254;9.618;2024-02-15T09:42:36;3.60;;;1.60;;
15354;SDS011;7777;52.254;9.618;2024-02-15T09:45:05;6.60;;;1.50;;
15354;SDS011;7777;52.254;9.618;2024-02-15T09:47:34;2.77;;;1.60;;
15354;SDS011;7777;52.254;9.618;2024-02-15T09:50:06;5.53;;;1.60;;
15354;SDS011;7777;52.254;9.618;2024-02-15T09:52:33;2.70;;;1.63;;
15354;SDS011;7777;52.254;9.618;2024-02-15T09:55:02;3.37;;;1.73;;
15354;SDS011;7777;52.254;9.618;2024-02-15T09:57:30;7.93;;;1.63;;
15354;SDS011;7777;52.254;9.618;2024-02-15T10:00:00;2.57;;;1.47;;
15354;SDS011;7777;52.254;9.618;2024-02-15T10:02:28;3.17;;;1.37;;
15354;SDS011;7777;52.254;9.618;2024-02-15T10:04:55;2.40;;;1.33;;
15354;SDS011;7777;52.254;9.618;2024-02-15T10:07:24;3.33;;;1.33;;
15354;SDS011;7777;52.254;9.618;2024-02-15T10:09:52;4.43;;;1.63;;
15354;SDS011;7777;52.254;9.618;2024-02-15T10:12:18;2.37;;;1.30;;
15354;SDS011;7777;52.254;9.618;2024-02-15T10:14:49;6.03;;;1.67;;
15354;SDS011;7777;52.254;9.618;2024-02-15T10:17:19;5.77;;;1.40;;
15354;SDS011;7777;52.254;9.618;2024-02-15T10:20:05;5.83;;;1.80;;
15354;SDS011;7777;52.254;9.618;2024-02-15T10:22:31;4.10;;;1.47;;
15354;SDS011;7777;52.254;9.618;2024-02-15T10:25:10;5.10;;;2.17;;
15354;SDS011;7777;52.254;9.618;2024-02-15T10:27:39;2.23;;;1.03;;
15354;SDS011;7777;52.254;9.618;2024-02-15T10:30:18;5.33;;;1.60;;
15354;SDS011;7777;52.254;9.618;2024-02-15T10:32:46;3.63;;;1.20;;
15354;SDS011;7777;52.254;9.618;2024-02-15T10:35:22;4.07;;;1.93;;
15354;SDS011;7777;52.254;9.618;2024-02-15T10:37:49;5.67;;;1.90;;
15354;SDS011;7777;52.254;9.618;2024-02-15T10:40:19;7.97;;;2.00;;
15354;SDS011;7777;52.254;9.618;2024-02-15T10:42:46;4.13;;;1.77;;
15354;SDS011;7777;52.254;9.618;2024-02-15T10:45:13;5.30;;;2.10;;
15354;SDS011;7777;52.254;9.618;2024-02-15T10:47:42;3.63;;;1.50;;
15354;SDS011;7777;52.254;9.618;2024-02-15T10:50:11;4.20;;;1.73;;
15354;SDS011;7777;52.254;9.618;2024-02-15T10:52:39;3.30;;;1.60;;
15354;SDS011;7777;52.254;9.618;2024-02-15T10:55:18;6.20;;;1.93;;
15354;SDS011;7777;52.254;9.618;2024-02-15T10:58:08;4.10;;;1.97;;
15354;SDS011;7777;52.254;9.618;2024-02-15T11:00:38;3.37;;;1.47;;
15354;SDS011;7777;52.254;9.618;2024-02-15T11:03:09;4.80;;;1.67;;
15354;SDS011;7777;52.254;9.618;2024-02-15T11:05:38;4.10;;;1.60;;
15354;SDS011;7777;52.254;9.618;2024-02-15T11:08:06;5.73;;;2.00;;
15354;SDS011;7777;52.254;9.618;2024-02-15T11:10:33;3.50;;;2.10;;
15354;SDS011;7777;52.254;9.618;2024-02-15T11:13:02;4.70;;;1.83;;
15354;SDS011;7777;52.254;9.618;2024-02-15T11:15:44;3.43;;;1.87;;
15354;SDS011;7777;52.254;9.618;2024-02-15T11:18:17;2.63;;;1.50;;
15354;SDS011;7777;52.254;9.618;2024-02-15T11:21:16;4.77;;;1.50;;
15354;SDS011;7777;52.254;9.618;2024-02-15T11:24:25;5.43;;;2.00;;
15354;SDS011;7777;52.254;9.618;2024-02-15T11:27:00;8.77;;;2.30;;
15354;SDS011;7777;52.254;9.618;2024-02-15T11:40:15;2.37;;;1.47;;
15354;SDS011;7777;52.254;9.618;2024-02-15T11:42:42;6.07;;;1.97;;
15354;SDS011;7777;52.254;9.618;2024-02-15T11:45:09;3.87;;;1.60;;
15354;SDS011;7777;52.254;9.618;2024-02-15T11:47:41;6.27;;;1.90;;
15354;SDS011;7777;52.254;9.618;2024-02-15T11:50:10;4.43;;;1.90;;
15354;SDS011;7777;52.254;9.618;2024-02-15T11:52:40;3.83;;;1.90;;
15354;SDS011;7777;52.254;9.618;2024-02-15T11:55:07;3.90;;;1.57;;
15354;SDS011;7777;52.254;9.618;2024-02-15T11:57:41;3.97;;;1.73;;
15354;SDS011;7777;52.254;9.618;2024-02-15T12:00:19;4.00;;;1.40;;
15354;SDS011;7777;52.254;9.618;2024-02-15T12:03:07;5.73;;;1.70;;
15354;SDS011;7777;52.254;9.618;2024-02-15T12:05:52;3.37;;;1.87;;
15354;SDS011;7777;52.254;9.618;2024-02-15T12:08:39;3.73;;;1.70;;
15354;SDS011;7777;52.254;9.618;2024-02-15T12:11:27;2.10;;;1.30;;
15354;SDS011;7777;52.254;9.618;2024-02-15T12:14:12;1.87;;;1.20;;
15354;SDS011;7777;52.254;9.618;2024-02-15T12:17:05;2.90;;;1.23;;
15354;SDS011;7777;52.254;9.618;2024-02-15T12:19:52;6.73;;;1.60;;
15354;SDS011;7777;52.254;9.618;2024-02-15T12:22:27;2.57;;;1.33;;
15354;SDS011;7777;52.254;9.618;2024-02-15T12:24:58;3.27;;;1.60;;
15354;SDS011;7777;52.254;9.618;2024-02-15T12:27:26;5.20;;;1.57;;
15354;SDS011;7777;52.254;9.618;2024-02-15T12:29:54;3.00;;;1.20;;
15354;SDS011;7777;52.254;9.618;2024-02-15T12:32:24;6.20;;;1.60;;
15354;SDS011;7777;52.254;9.618;2024-02-15T12:34:52;2.93;;;1.40;;
15354;SDS011;7777;52.254;9.618;2024-02-15T12:37:33;2.73;;;1.37;;
15354;SDS011;7777;52.254;9.618;2024-02-15T12:39:59;2.57;;;1.13;;
15354;SDS011;7777;52.254;9.618;2024-02-15T12:42:45;6.57;;;2.07;;
15354;SDS011;7777;52.254;9.618;2024-02-15T12:45:15;6.73;;;2.00;;
15354;SDS011;7777;52.254;9.618;2024-02-15T12:47:55;3.53;;;2.00;;
15354;SDS011;7777;52.254;9.618;2024-02-15T12:50:23;4.03;;;1.70;;
15354;SDS011;7777;52.254;9.618;2024-02-15T12:52:53;3.67;;;1.60;;
15354;SDS011;7777;52.254;9.618;2024-02-15T12:55:23;2.63;;;1.43;;
15354;SDS011;7777;52.254;9.618;2024-02-15T12:57:50;3.77;;;1.70;;
15354;SDS011;7777;52.254;9.618;2024-02-15T13:00:18;3.40;;;1.63;;
15354;SDS011;7777;52.254;9.618;2024-02-15T13:02:50;2.40;;;1.47;;
15354;SDS011;7777;52.254;9.618;2024-02-15T13:05:19;2.07;;;1.30;;
15354;SDS011;7777;52.254;9.618;2024-02-15T13:07:46;2.93;;;1.60;;
15354;SDS011;7777;52.254;9.618;2024-02-15T13:10:16;3.07;;;1.50;;
15354;SDS011;7777;52.254;9.618;2024-02-15T13:12:43;4.20;;;1.80;;
15354;SDS011;7777;52.254;9.618;2024-02-15T13:15:11;6.23;;;1.20;;
15354;SDS011;7777;52.254;9.618;2024-02-15T13:17:47;2.77;;;1.30;;
15354;SDS011;7777;52.254;9.618;2024-02-15T13:20:17;8.30;;;1.50;;
15354;SDS011;7777;52.254;9.618;2024-02-15T13:22:45;3.33;;;1.70;;
15354;SDS011;7777;52.254;9.618;2024-02-15T13:25:15;3.13;;;1.47;;
15354;SDS011;7777;52.254;9.618;2024-02-15T13:27:46;3.37;;;1.80;;
15354;SDS011;7777;52.254;9.618;2024-02-15T13:30:12;1.67;;;1.30;;
15354;SDS011;7777;52.254;9.618;2024-02-15T13:32:39;4.93;;;1.83;;
15354;SDS011;7777;52.254;9.618;2024-02-15T13:35:09;3.53;;;1.53;;
15354;SDS011;7777;52.254;9.618;2024-02-15T13:37:42;4.57;;;1.50;;
15354;SDS011;7777;52.254;9.618;2024-02-15T13:40:09;3.00;;;1.60;;
15354;SDS011;7777;52.254;9.618;2024-02-15T13:45:17;3.87;;;1.50;;
15354;SDS011;7777;52.254;9.618;2024-02-15T13:47:47;2.93;;;1.27;;
15354;SDS011;7777;52.254;9.618;2024-02-15T13:50:16;1.57;;;1.27;;
15354;SDS011;7777;52.254;9.618;2024-02-15T13:52:42;3.10;;;1.50;;
15354;SDS011;7777;52.254;9.618;2024-02-15T13:55:10;2.33;;;1.20;;
15354;SDS011;7777;52.254;9.618;2024-02-15T13:57:37;2.97;;;1.53;;
15354;SDS011;7777;52.254;9.618;2024-02-15T14:00:08;3.40;;;1.50;;
15354;SDS011;7777;52.254;9.618;2024-02-15T14:02:42;3.00;;;1.40;;
15354;SDS011;7777;52.254;9.618;2024-02-15T14:05:09;3.63;;;1.40;;
15354;SDS011;7777;52.254;9.618;2024-02-15T14:07:37;5.67;;;1.70;;
15354;SDS011;7777;52.254;9.618;2024-02-15T14:10:04;2.80;;;1.40;;
15354;SDS011;7777;52.254;9.618;2024-02-15T14:12:32;4.70;;;1.60;;
15354;SDS011;7777;52.254;9.618;2024-02-15T14:14:59;5.67;;;1.60;;
15354;SDS011;7777;52.254;9.618;2024-02-15T14:17:26;3.43;;;1.57;;
15354;SDS011;7777;52.254;9.618;2024-02-15T14:19:53;3.50;;;1.50;;
15354;SDS011;7777;52.254;9.618;2024-02-15T14:22:18;3.87;;;1.67;;
15354;SDS011;7777;52.254;9.618;2024-02-15T14:24:48;4.13;;;1.60;;
15354;SDS011;7777;52.254;9.618;2024-02-15T14:27:15;3.30;;;1.27;;
15354;SDS011;7777;52.254;9.618;2024-02-15T14:29:40;4.40;;;1.73;;
15354;SDS011;7777;52.254;9.618;2024-02-15T14:32:29;3.93;;;1.67;;
15354;SDS011;7777;52.254;9.618;2024-02-15T14:35:13;7.37;;;1.87;;
15354;SDS011;7777;52.254;9.618;2024-02-15T14:37:39;5.20;;;1.53;;
15354;SDS011;7777;52.254;9.618;2024-02-15T14:40:06;3.43;;;1.20;;
15354;SDS011;7777;52.254;9.618;2024-02-15T14:42:32;5.37;;;1.67;;
15354;SDS011;7777;52.254;9.618;2024-02-15T14:45:02;5.20;;;1.83;;
15354;SDS011;7777;52.254;9.618;2024-02-15T14:47:29;3.00;;;1.57;;
15354;SDS011;7777;52.254;9.618;2024-02-15T14:49:55;3.57;;;1.77;;
15354;SDS011;7777;52.254;9.618;2024-02-15T14:52:21;5.07;;;1.90;;
15354;SDS011;7777;52.254;9.618;2024-02-15T14:54:47;5.13;;;1.93;;
15354;SDS011;7777;52.254;9.618;2024-02-15T14:57:14;8.67;;;2.33;;
15354;SDS011;7777;52.254;9.618;2024-02-15T14:59:39;6.40;;;2.00;;
15354;SDS011;7777;52.254;9.618;2024-02-15T15:02:05;5.13;;;1.47;;
15354;SDS011;7777;52.254;9.618;2024-02-15T15:04:34;4.80;;;1.87;;
15354;SDS011;7777;52.254;9.618;2024-02-15T15:07:20;3.90;;;1.60;;
15354;SDS011;7777;52.254;9.618;2024-02-15T15:10:05;7.00;;;2.07;;
15354;SDS011;7777;52.254;9.618;2024-02-15T15:12:50;2.83;;;1.63;;
15354;SDS011;7777;52.254;9.618;2024-02-15T15:15:16;5.57;;;1.73;;
15354;SDS011;7777;52.254;9.618;2024-02-15T15:17:43;2.57;;;1.50;;
15354;SDS011;7777;52.254;9.618;2024-02-15T15:20:11;4.80;;;1.83;;
15354;SDS011;7777;52.254;9.618;2024-02-15T15:22:37;5.73;;;2.03;;
15354;SDS011;7777;52.254;9.618;2024-02-15T15:25:04;4.70;;;1.90;;
15354;SDS011;7777;52.254;9.618;2024-02-15T15:27:30;4.93;;;1.90;;